createdAt,value
2023-07-30T00:02:01.922Z,99582.65
2023-07-30T00:04:33.239Z,99586.52
2023-07-30T00:07:03.954Z,99587.58
2023-07-30T00:09:34.788Z,99582.42
2023-07-30T00:12:05.634Z,99584.79
2023-07-30T00:14:36.281Z,99581.27
2023-07-30T00:17:07.088Z,99581.74
2023-07-30T00:19:37.873Z,99586.02
2023-07-30T00:22:08.652Z,99593.50
2023-07-30T00:24:39.405Z,99592.55
2023-07-30T00:27:10.184Z,99592.30
2023-07-30T00:29:40.749Z,99601.59
2023-07-30T00:32:12.697Z,99604.58
2023-07-30T00:34:43.568Z,99601.83
2023-07-30T00:37:15.745Z,99601.29
2023-07-30T00:39:46.430Z,99605.04
2023-07-30T00:42:17.142Z,99606.22
2023-07-30T00:44:48.200Z,99609.14
2023-07-30T00:47:19.076Z,99604.70
2023-07-30T00:49:50.707Z,99599.80
2023-07-30T00:52:23.702Z,99598.40
2023-07-30T00:54:54.673Z,99603.37
2023-07-30T00:57:25.857Z,99598.18
2023-07-30T00:59:57.026Z,99595.33
2023-07-30T01:02:28.939Z,99609.70
2023-07-30T01:05:02.128Z,99611.70
2023-07-30T01:07:32.880Z,99613.04
2023-07-30T01:10:04.107Z,99612.97
2023-07-30T01:12:36.769Z,99618.36
2023-07-30T01:15:09.482Z,99620.10
2023-07-30T01:17:40.082Z,99617.70
2023-07-30T01:20:12.822Z,99618.20
2023-07-30T01:22:43.247Z,99621.23
2023-07-30T01:25:13.933Z,99623.57
2023-07-30T01:27:46.688Z,99620.14
2023-07-30T01:30:19.839Z,99620.81
2023-07-30T01:32:51.792Z,99624.64
2023-07-30T01:35:23.772Z,99620.89
2023-07-30T01:37:54.724Z,99620.74
2023-07-30T01:40:25.778Z,99621.49
2023-07-30T01:42:56.314Z,99626.35
2023-07-30T01:45:27.251Z,99620.02
2023-07-30T01:47:57.920Z,99623.42
2023-07-30T01:50:28.793Z,99622.98
2023-07-30T01:53:00.177Z,99626.58
2023-07-30T01:55:33.679Z,99627.71
2023-07-30T01:58:04.205Z,99625.46
2023-07-30T02:00:35.539Z,99626.95
2023-07-30T02:03:08.874Z,99629.46
2023-07-30T02:05:40.110Z,99633.25
2023-07-30T02:08:10.734Z,99637.48
2023-07-30T02:10:41.313Z,99639.15
2023-07-30T02:13:11.809Z,99644.48
2023-07-30T02:15:44.406Z,99643.14
2023-07-30T02:18:14.848Z,99644.36
2023-07-30T02:20:45.621Z,99646.37
2023-07-30T02:23:17.252Z,99647.16
2023-07-30T02:25:47.926Z,99648.54
2023-07-30T02:28:18.475Z,99656.48
2023-07-30T02:30:49.649Z,99658.46
2023-07-30T02:33:20.200Z,99660.04
2023-07-30T02:35:50.971Z,99661.38
2023-07-30T02:38:21.449Z,99662.21
2023-07-30T02:40:52.131Z,99664.09
2023-07-30T02:43:22.596Z,99665.58
2023-07-30T02:45:53.518Z,99664.30
2023-07-30T02:48:23.922Z,99663.64
2023-07-30T02:50:55.029Z,99661.31
2023-07-30T02:53:25.478Z,99659.95
2023-07-30T02:55:56.463Z,99661.16
2023-07-30T02:58:26.974Z,99661.23
2023-07-30T03:00:57.879Z,99662.73
2023-07-30T03:03:28.361Z,99663.81
2023-07-30T03:06:00.735Z,99664.92
2023-07-30T03:08:34.056Z,99663.36
2023-07-30T03:11:05.273Z,99664.58
2023-07-30T03:13:35.760Z,99671.29
2023-07-30T03:16:07.318Z,99668.95
2023-07-30T03:18:37.821Z,99672.36
2023-07-30T03:21:08.471Z,99675.31
2023-07-30T03:23:38.860Z,99673.17
2023-07-30T03:26:09.830Z,99674.21
2023-07-30T03:28:40.925Z,99675.84
2023-07-30T03:31:12.330Z,99675.41
2023-07-30T03:33:45.151Z,99675.53
2023-07-30T03:36:16.279Z,99675.35
2023-07-30T03:38:47.049Z,99677.45
2023-07-30T03:41:18.058Z,99681.45
2023-07-30T03:43:48.571Z,99688.65
2023-07-30T03:46:19.687Z,99690.77
2023-07-30T03:48:51.098Z,99682.96
2023-07-30T03:51:22.713Z,99676.27
2023-07-30T03:53:54.865Z,99678.01
2023-07-30T03:56:26.482Z,99679.25
2023-07-30T03:59:01.126Z,99677.54
2023-07-30T04:01:35.385Z,99682.94
2023-07-30T04:04:06.539Z,99693.48
2023-07-30T04:06:37.655Z,99700.34
2023-07-30T04:09:09.439Z,99700.02
2023-07-30T04:11:40.605Z,99696.34
2023-07-30T04:14:11.142Z,99696.20
2023-07-30T04:16:42.044Z,99702.52
2023-07-30T04:19:12.503Z,99712.58
2023-07-30T04:21:43.287Z,99716.09
2023-07-30T04:24:13.815Z,99722.94
2023-07-30T04:26:44.928Z,99729.77
2023-07-30T04:29:17.995Z,99735.23
2023-07-30T04:31:49.383Z,99738.02
2023-07-30T04:34:19.872Z,99736.86
2023-07-30T04:36:50.931Z,99742.33
2023-07-30T04:39:21.850Z,99747.16
2023-07-30T04:41:52.358Z,99748.11
2023-07-30T04:44:22.828Z,99751.56
2023-07-30T04:46:54.170Z,99754.58
2023-07-30T04:49:24.552Z,99752.69
2023-07-30T04:51:57.328Z,99756.21
2023-07-30T04:54:28.366Z,99760.20
2023-07-30T04:57:00.757Z,99760.75
2023-07-30T04:59:31.360Z,99765.92
2023-07-30T05:02:02.227Z,99768.74
2023-07-30T05:04:33.125Z,99769.94
2023-07-30T05:07:03.821Z,99771.20
2023-07-30T05:09:34.147Z,99775.33
2023-07-30T05:12:05.215Z,99778.91
2023-07-30T05:14:35.636Z,99780.73
2023-07-30T05:17:06.995Z,99779.51
2023-07-30T05:19:37.421Z,99784.71
2023-07-30T05:22:09.186Z,99792.52
2023-07-30T05:24:39.540Z,99795.86
2023-07-30T05:27:10.366Z,99798.48
2023-07-30T05:29:40.777Z,99797.39
2023-07-30T05:32:11.895Z,99797.85
2023-07-30T05:34:42.238Z,99804.99
2023-07-30T05:37:14.461Z,99807.92
2023-07-30T05:39:47.449Z,99810.02
2023-07-30T05:42:18.068Z,99815.27
2023-07-30T05:44:48.580Z,99820.89
2023-07-30T05:47:19.438Z,99820.66
2023-07-30T05:49:49.774Z,99820.86
2023-07-30T05:52:22.346Z,99815.23
2023-07-30T05:54:52.828Z,99817.25
2023-07-30T05:57:23.729Z,99819.30
2023-07-30T05:59:54.413Z,99819.90
2023-07-30T06:02:25.168Z,99823.32
2023-07-30T06:04:55.924Z,99827.75
2023-07-30T06:07:27.073Z,99827.67
2023-07-30T06:09:57.518Z,99827.51
2023-07-30T06:12:28.124Z,99826.90
2023-07-30T06:15:01.636Z,99828.73
2023-07-30T06:17:34.857Z,99832.55
2023-07-30T06:20:05.403Z,99839.12
2023-07-30T06:22:36.139Z,99837.27
2023-07-30T06:25:07.566Z,99838.09
2023-07-30T06:27:38.585Z,99838.52
2023-07-30T06:30:09.831Z,99835.63
2023-07-30T06:32:40.947Z,99840.53
2023-07-30T06:35:11.784Z,99843.36
2023-07-30T06:37:42.812Z,99847.60
2023-07-30T06:40:13.324Z,99845.60
2023-07-30T06:42:43.850Z,99841.79
2023-07-30T06:45:14.265Z,99838.01
2023-07-30T06:47:45.242Z,99840.14
2023-07-30T06:50:15.722Z,99843.04
2023-07-30T06:52:46.510Z,99841.89
2023-07-30T06:55:16.936Z,99842.64
2023-07-30T06:57:47.880Z,99844.71
2023-07-30T07:00:22.816Z,99841.20
2023-07-30T07:02:54.165Z,99843.41
2023-07-30T07:05:25.054Z,99844.77
2023-07-30T07:07:55.901Z,99844.57
2023-07-30T07:10:26.342Z,99846.65
2023-07-30T07:12:57.216Z,99846.39
2023-07-30T07:15:27.732Z,99848.46
2023-07-30T07:18:00.346Z,99854.79
2023-07-30T07:20:33.362Z,99859.17
2023-07-30T07:23:03.940Z,99861.81
2023-07-30T07:25:34.965Z,99858.11
2023-07-30T07:28:06.238Z,99858.83
2023-07-30T07:30:38.029Z,99858.92
2023-07-30T07:33:12.950Z,99862.10
2023-07-30T07:35:43.476Z,99859.98
2023-07-30T07:38:14.230Z,99858.09
2023-07-30T07:40:44.616Z,99860.27
2023-07-30T07:43:15.133Z,99860.45
2023-07-30T07:45:45.872Z,99858.88
2023-07-30T07:48:16.395Z,99853.58
2023-07-30T07:50:47.289Z,99855.90
2023-07-30T07:53:17.706Z,99851.52
2023-07-30T07:55:48.224Z,99856.27
2023-07-30T07:58:18.833Z,99853.79
2023-07-30T08:00:49.489Z,99856.02
2023-07-30T08:03:21.247Z,99854.45
2023-07-30T08:05:52.190Z,99861.48
2023-07-30T08:08:24.088Z,99866.09
2023-07-30T08:10:55.941Z,99856.89
2023-07-30T08:13:26.517Z,99854.31
2023-07-30T08:15:57.215Z,99852.75
2023-07-30T08:18:28.207Z,99858.73
2023-07-30T08:21:01.958Z,99863.10
2023-07-30T08:23:35.328Z,99861.17
2023-07-30T08:26:05.768Z,99863.02
2023-07-30T08:28:36.258Z,99859.23
2023-07-30T08:31:07.393Z,99862.45
2023-07-30T08:33:38.160Z,99861.95
2023-07-30T08:36:08.708Z,99861.08
2023-07-30T08:38:39.638Z,99867.89
2023-07-30T08:41:10.468Z,99870.16
2023-07-30T08:43:41.291Z,99865.35
2023-07-30T08:46:11.751Z,99867.10
2023-07-30T08:48:45.343Z,99867.36
2023-07-30T08:51:18.120Z,99866.90
2023-07-30T08:53:49.385Z,99871.59
2023-07-30T08:56:20.324Z,99871.70
2023-07-30T08:58:58.834Z,99868.89
2023-07-30T09:01:34.089Z,99870.83
2023-07-30T09:04:05.243Z,99868.00
2023-07-30T09:06:36.073Z,99873.05
2023-07-30T09:09:06.849Z,99875.52
2023-07-30T09:11:37.906Z,99880.55
2023-07-30T09:14:09.168Z,99883.04
2023-07-30T09:16:39.752Z,99883.75
2023-07-30T09:19:10.301Z,99881.61
2023-07-30T09:21:42.164Z,99879.13
2023-07-30T09:24:12.925Z,99883.63
2023-07-30T09:26:44.943Z,99886.39
2023-07-30T09:29:15.897Z,99882.89
2023-07-30T09:31:50.536Z,99882.47
2023-07-30T09:34:21.470Z,99884.02
2023-07-30T09:36:53.292Z,99887.22
2023-07-30T09:39:24.549Z,99886.54
2023-07-30T09:41:55.726Z,99885.32
2023-07-30T09:44:26.217Z,99889.70
2023-07-30T09:46:56.809Z,99891.83
2023-07-30T09:49:27.544Z,99889.51
2023-07-30T09:51:59.249Z,99891.02
2023-07-30T09:54:31.761Z,99888.84
2023-07-30T09:57:02.314Z,99883.77
2023-07-30T09:59:34.865Z,99877.42
2023-07-30T10:02:05.589Z,99877.09
2023-07-30T10:04:37.796Z,99873.23
2023-07-30T10:07:10.872Z,99874.80
2023-07-30T10:09:44.813Z,99873.14
2023-07-30T10:12:16.569Z,99865.42
2023-07-30T10:14:47.660Z,99866.25
2023-07-30T10:17:19.745Z,99869.66
2023-07-30T10:19:51.353Z,99868.61
2023-07-30T10:22:25.498Z,99869.29
2023-07-30T10:25:00.257Z,99867.26
2023-07-30T10:27:39.111Z,99859.96
2023-07-30T10:30:12.260Z,99851.33
2023-07-30T10:32:43.716Z,99849.96
2023-07-30T10:35:34.709Z,99852.91
2023-07-30T10:38:14.413Z,99850.98
2023-07-30T10:41:01.565Z,99857.46
2023-07-30T10:43:36.653Z,99858.51
2023-07-30T10:46:07.592Z,99858.27
2023-07-30T10:48:38.561Z,99858.71
2023-07-30T10:51:10.595Z,99851.95
2023-07-30T10:53:41.855Z,99849.58
2023-07-30T10:56:12.695Z,99849.25
2023-07-30T10:58:44.948Z,99847.11
2023-07-30T11:01:15.336Z,99849.23
2023-07-30T11:03:45.862Z,99845.11
2023-07-30T11:06:16.406Z,99839.73
2023-07-30T11:08:46.842Z,99837.80
2023-07-30T11:11:17.679Z,99844.31
2023-07-30T11:13:49.153Z,99839.96
2023-07-30T11:16:19.833Z,99832.77
2023-07-30T11:18:53.194Z,99837.94
2023-07-30T11:21:32.018Z,99828.84
2023-07-30T11:24:02.745Z,99827.92
2023-07-30T11:26:33.361Z,99827.86
2023-07-30T11:29:16.028Z,99826.54
2023-07-30T11:31:47.713Z,99827.30
2023-07-30T11:34:19.679Z,99825.65
2023-07-30T11:36:50.510Z,99820.23
2023-07-30T11:39:21.409Z,99820.07
2023-07-30T11:41:52.276Z,99822.11
2023-07-30T11:44:37.359Z,99821.77
2023-07-30T11:47:08.213Z,99821.54
2023-07-30T11:49:38.979Z,99820.67
2023-07-30T11:52:10.583Z,99823.33
2023-07-30T11:54:45.978Z,99828.48
2023-07-30T11:57:16.681Z,99827.91
2023-07-30T11:59:47.279Z,99828.33
2023-07-30T12:02:20.706Z,99828.61
2023-07-30T12:05:02.047Z,99833.33
2023-07-30T12:07:44.174Z,99830.93
2023-07-30T12:10:17.524Z,99828.69
2023-07-30T12:12:53.824Z,99830.14
2023-07-30T12:15:24.452Z,99832.02
2023-07-30T12:17:55.010Z,99833.19
2023-07-30T12:20:29.432Z,99838.34
2023-07-30T12:23:01.389Z,99837.36
2023-07-30T12:25:31.969Z,99833.14
2023-07-30T12:28:03.260Z,99832.32
2023-07-30T12:30:37.009Z,99826.84
2023-07-30T12:33:08.272Z,99831.33
2023-07-30T12:35:39.299Z,99830.73
2023-07-30T12:38:12.118Z,99825.86
2023-07-30T12:40:42.930Z,99823.34
2023-07-30T12:43:14.409Z,99822.21
2023-07-30T12:45:45.061Z,99823.05
2023-07-30T12:48:15.921Z,99819.59
2023-07-30T12:50:46.599Z,99820.14
2023-07-30T12:53:17.227Z,99816.79
2023-07-30T12:55:48.219Z,99816.91
2023-07-30T12:58:18.751Z,99815.98
2023-07-30T13:00:49.368Z,99817.74
2023-07-30T13:03:20.005Z,99815.58
2023-07-30T13:05:51.621Z,99813.74
2023-07-30T13:08:22.406Z,99814.20
2023-07-30T13:10:53.268Z,99814.66
2023-07-30T13:13:24.961Z,99813.52
2023-07-30T13:15:59.297Z,99812.10
2023-07-30T13:18:30.303Z,99805.89
2023-07-30T13:21:01.134Z,99801.16
2023-07-30T13:23:33.186Z,99802.84
2023-07-30T13:26:04.377Z,99796.56
2023-07-30T13:28:34.913Z,99799.64
2023-07-30T13:31:06.197Z,99805.59
2023-07-30T13:33:36.945Z,99811.41
2023-07-30T13:36:08.176Z,99807.09
2023-07-30T13:38:40.057Z,99804.02
2023-07-30T13:41:11.540Z,99801.59
2023-07-30T13:43:41.903Z,99796.53
2023-07-30T13:46:12.446Z,99798.22
2023-07-30T13:48:42.971Z,99801.33
2023-07-30T13:51:14.045Z,99800.34
2023-07-30T13:53:44.437Z,99800.91
2023-07-30T13:56:15.304Z,99798.73
2023-07-30T13:58:46.098Z,99795.00
2023-07-30T14:01:17.380Z,99797.69
2023-07-30T14:03:47.812Z,99800.27
2023-07-30T14:06:18.485Z,99802.02
2023-07-30T14:08:49.103Z,99804.48
2023-07-30T14:11:19.861Z,99800.95
2023-07-30T14:13:51.213Z,99795.77
2023-07-30T14:16:25.270Z,99797.87
2023-07-30T14:18:55.766Z,99799.17
2023-07-30T14:21:32.190Z,99803.38
2023-07-30T14:24:02.681Z,99804.63
2023-07-30T14:26:33.471Z,99804.63
2023-07-30T14:29:03.951Z,99798.27
2023-07-30T14:31:35.185Z,99798.23
2023-07-30T14:34:07.026Z,99794.36
2023-07-30T14:36:38.010Z,99795.42
2023-07-30T14:39:08.445Z,99795.98
2023-07-30T14:41:40.417Z,99789.34
2023-07-30T14:44:11.258Z,99782.75
2023-07-30T14:46:42.732Z,99780.38
2023-07-30T14:49:13.233Z,99782.65
2023-07-30T14:51:44.012Z,99782.03
2023-07-30T14:54:14.605Z,99778.64
2023-07-30T14:56:45.713Z,99779.30
2023-07-30T14:59:16.680Z,99775.59
2023-07-30T15:01:47.568Z,99776.96
2023-07-30T15:04:18.100Z,99775.41
2023-07-30T15:06:49.192Z,99777.38
2023-07-30T15:09:19.704Z,99779.79
2023-07-30T15:11:51.169Z,99780.42
2023-07-30T15:14:21.732Z,99776.30
2023-07-30T15:16:52.933Z,99767.83
2023-07-30T15:19:23.371Z,99759.85
2023-07-30T15:21:54.260Z,99762.23
2023-07-30T15:24:24.734Z,99768.43
2023-07-30T15:26:58.153Z,99774.44
2023-07-30T15:29:28.610Z,99773.42
2023-07-30T15:32:03.894Z,99772.14
2023-07-30T15:34:37.501Z,99773.36
2023-07-30T15:37:08.413Z,99771.16
2023-07-30T15:39:38.824Z,99767.30
2023-07-30T15:42:10.265Z,99766.45
2023-07-30T15:44:40.631Z,99763.45
2023-07-30T15:47:14.144Z,99764.66
2023-07-30T15:49:44.967Z,99765.31
2023-07-30T15:52:15.753Z,99764.84
2023-07-30T15:54:46.173Z,99765.11
2023-07-30T15:57:18.394Z,99763.96
2023-07-30T15:59:51.982Z,99761.69
2023-07-30T16:02:22.675Z,99757.92
2023-07-30T16:04:53.819Z,99757.23
2023-07-30T16:07:24.935Z,99756.37
2023-07-30T16:09:57.905Z,99754.11
2023-07-30T16:12:28.628Z,99750.51
2023-07-30T16:15:03.086Z,99751.98
2023-07-30T16:17:34.827Z,99750.23
2023-07-30T16:20:07.077Z,99750.11
2023-07-30T16:22:38.620Z,99752.57
2023-07-30T16:25:09.789Z,99751.20
2023-07-30T16:27:41.027Z,99747.33
2023-07-30T16:30:12.101Z,99747.65
2023-07-30T16:32:43.234Z,99747.37
2023-07-30T16:35:13.684Z,99750.70
2023-07-30T16:37:46.061Z,99754.68
2023-07-30T16:40:17.204Z,99758.66
2023-07-30T16:42:48.332Z,99763.73
2023-07-30T16:45:18.729Z,99765.92
2023-07-30T16:47:49.192Z,99772.84
2023-07-30T16:50:19.709Z,99777.30
2023-07-30T16:52:50.192Z,99779.80
2023-07-30T16:55:20.748Z,99778.66
2023-07-30T16:57:51.244Z,99784.20
2023-07-30T17:00:21.848Z,99779.57
2023-07-30T17:02:53.373Z,99784.58
2023-07-30T17:05:23.960Z,99790.55
2023-07-30T17:07:54.979Z,99791.02
2023-07-30T17:10:25.396Z,99797.52
2023-07-30T17:12:56.456Z,99802.89
2023-07-30T17:15:27.280Z,99804.06
2023-07-30T17:17:58.154Z,99802.02
2023-07-30T17:20:29.071Z,99803.95
2023-07-30T17:23:02.383Z,99799.73
2023-07-30T17:25:35.033Z,99800.80
2023-07-30T17:28:06.559Z,99800.65
2023-07-30T17:30:37.100Z,99796.70
2023-07-30T17:33:07.981Z,99795.91
2023-07-30T17:35:38.524Z,99799.34
2023-07-30T17:38:09.227Z,99803.80
2023-07-30T17:40:39.757Z,99802.88
2023-07-30T17:43:11.180Z,99806.23
2023-07-30T17:45:41.768Z,99804.56
2023-07-30T17:48:12.519Z,99807.64
2023-07-30T17:50:43.334Z,99808.66
2023-07-30T17:53:14.147Z,99808.69
2023-07-30T17:55:45.242Z,99805.38
2023-07-30T17:58:15.958Z,99809.15
2023-07-30T18:00:49.153Z,99812.10
2023-07-30T18:03:19.836Z,99812.35
2023-07-30T18:05:50.751Z,99812.29
2023-07-30T18:08:21.478Z,99812.10
2023-07-30T18:10:51.954Z,99812.09
2023-07-30T18:13:22.860Z,99808.84
2023-07-30T18:15:53.519Z,99808.90
2023-07-30T18:18:24.290Z,99806.96
2023-07-30T18:20:54.801Z,99810.25
2023-07-30T18:23:25.880Z,99814.27
2023-07-30T18:25:56.552Z,99815.14
2023-07-30T18:28:27.468Z,99812.96
2023-07-30T18:30:58.178Z,99806.55
2023-07-30T18:33:29.294Z,99809.43
2023-07-30T18:36:02.052Z,99806.98
2023-07-30T18:38:35.493Z,99809.06
2023-07-30T18:41:06.849Z,99808.23
2023-07-30T18:43:40.296Z,99814.61
2023-07-30T18:46:13.327Z,99820.39
2023-07-30T18:48:44.327Z,99824.29
2023-07-30T18:51:15.029Z,99824.48
2023-07-30T18:53:45.615Z,99827.55
2023-07-30T18:56:16.564Z,99833.18
2023-07-30T18:58:47.350Z,99833.66
2023-07-30T19:01:17.815Z,99827.61
2023-07-30T19:03:49.103Z,99827.58
2023-07-30T19:06:20.052Z,99827.34
2023-07-30T19:08:50.761Z,99826.50
2023-07-30T19:11:23.550Z,99826.16
2023-07-30T19:13:55.664Z,99827.79
2023-07-30T19:16:26.265Z,99827.29
2023-07-30T19:22:27.411Z,99826.40
2023-07-30T19:24:58.363Z,99828.66
2023-07-30T19:27:29.457Z,99830.56
2023-07-30T19:30:01.406Z,99832.91
2023-07-30T19:32:32.279Z,99833.86
2023-07-30T19:35:03.437Z,99839.08
2023-07-30T19:37:35.397Z,99837.93
2023-07-30T19:40:06.926Z,99841.36
2023-07-30T19:42:38.425Z,99842.50
2023-07-30T19:45:10.636Z,99848.05
2023-07-30T19:47:41.590Z,99847.81
2023-07-30T19:50:18.632Z,99844.96
2023-07-30T19:52:52.708Z,99842.11
2023-07-30T19:55:23.296Z,99845.34
2023-07-30T19:57:59.151Z,99847.23
2023-07-30T20:00:30.493Z,99847.58
2023-07-30T20:03:01.654Z,99850.52
2023-07-30T20:05:34.898Z,99855.55
2023-07-30T20:08:06.505Z,99854.55
2023-07-30T20:10:41.575Z,99854.11
2023-07-30T20:13:12.764Z,99850.93
2023-07-30T20:15:45.640Z,99852.54
2023-07-30T20:18:16.194Z,99856.48
2023-07-30T20:20:47.018Z,99863.98
2023-07-30T20:23:17.848Z,99862.89
2023-07-30T20:25:48.278Z,99858.80
2023-07-30T20:28:19.030Z,99857.52
2023-07-30T20:30:50.378Z,99855.27
2023-07-30T20:33:21.054Z,99854.55
2023-07-30T20:35:53.112Z,99855.14
2023-07-30T20:38:24.156Z,99850.55
2023-07-30T20:41:06.466Z,99853.16
2023-07-30T20:43:50.881Z,99852.90
2023-07-30T20:46:25.783Z,99858.10
2023-07-30T20:48:56.636Z,99858.57
2023-07-30T20:51:27.345Z,99856.55
2023-07-30T20:53:59.830Z,99863.05
2023-07-30T20:56:46.297Z,99868.73
2023-07-30T20:59:26.658Z,99872.98
2023-07-30T21:01:57.716Z,99873.45
2023-07-30T21:07:20.880Z,99871.48
2023-07-30T21:09:56.283Z,99873.02
2023-07-30T21:12:34.985Z,99878.90
2023-07-30T21:15:12.111Z,99875.51
2023-07-30T21:17:49.648Z,99877.02
2023-07-30T21:20:24.244Z,99880.70
2023-07-30T21:23:01.055Z,99880.30
2023-07-30T21:25:35.630Z,99879.64
2023-07-30T21:28:18.949Z,99875.11
2023-07-30T21:31:19.062Z,99877.00
2023-07-30T21:33:56.783Z,99873.84
2023-07-30T21:36:47.004Z,99872.36
2023-07-30T21:39:26.609Z,99867.48
2023-07-30T21:42:17.943Z,99863.00
2023-07-30T21:44:52.946Z,99856.63
2023-07-30T21:47:35.171Z,99862.37
2023-07-30T21:50:09.878Z,99862.59
2023-07-30T21:52:42.665Z,99864.02
2023-07-30T21:55:31.679Z,99861.65
2023-07-30T21:58:02.307Z,99862.92
2023-07-30T22:00:34.141Z,99860.23
2023-07-30T22:03:04.754Z,99862.41
2023-07-30T22:05:35.716Z,99857.90
2023-07-30T22:08:06.837Z,99853.45
2023-07-30T22:10:43.124Z,99852.66
2023-07-30T22:13:20.552Z,99852.85
2023-07-30T22:15:52.431Z,99857.27
2023-07-30T22:18:23.301Z,99866.66
2023-07-30T22:20:58.801Z,99869.56
2023-07-30T22:23:33.296Z,99865.64
2023-07-30T22:26:06.880Z,99861.73
2023-07-30T22:28:39.730Z,99861.08
2023-07-30T22:31:11.828Z,99863.17
2023-07-30T22:33:42.384Z,99858.97
2023-07-30T22:36:13.084Z,99856.91
2023-07-30T22:38:50.853Z,99853.21
2023-07-30T22:41:28.111Z,99854.77
2023-07-30T22:44:00.307Z,99857.20
2023-07-30T22:46:36.423Z,99854.54
2023-07-30T22:49:08.213Z,99856.46
2023-07-30T22:51:41.734Z,99857.83
2023-07-30T22:54:12.545Z,99853.36
2023-07-30T22:56:43.303Z,99851.05
2023-07-30T22:59:14.147Z,99849.27
2023-07-30T23:01:45.870Z,99851.73
2023-07-30T23:04:16.596Z,99855.90
2023-07-30T23:06:47.529Z,99856.56
2023-07-30T23:09:17.945Z,99859.10
2023-07-30T23:11:49.763Z,99858.27
2023-07-30T23:14:20.737Z,99863.98
2023-07-30T23:16:51.803Z,99859.50
2023-07-30T23:19:25.447Z,99860.61
2023-07-30T23:21:56.204Z,99859.36
2023-07-30T23:24:26.810Z,99857.38
2023-07-30T23:26:58.659Z,99858.63
2023-07-30T23:29:46.751Z,99860.28
2023-07-30T23:32:17.977Z,99862.86
2023-07-30T23:34:48.808Z,99860.64
2023-07-30T23:37:19.884Z,99862.65
2023-07-30T23:39:54.565Z,99857.31
2023-07-30T23:42:35.137Z,99857.56
2023-07-30T23:45:06.616Z,99857.77
2023-07-30T23:47:38.360Z,99854.19
2023-07-30T23:50:09.818Z,99853.98
2023-07-30T23:52:41.456Z,99858.71
2023-07-30T23:55:14.881Z,99854.91
2023-07-30T23:58:00.063Z,99854.74
